createdAt,value
2023-05-19T00:00:24.955Z,87.97
2023-05-19T00:03:13.245Z,88.64
2023-05-19T00:05:46.388Z,88.64
2023-05-19T00:08:16.846Z,89.56
2023-05-19T00:10:45.035Z,89.42
2023-05-19T00:13:13.222Z,89.12
2023-05-19T00:15:41.566Z,88.24
2023-05-19T00:18:10.117Z,87.23
2023-05-19T00:20:39.085Z,86.71
2023-05-19T00:23:07.218Z,86.60
2023-05-19T00:25:35.255Z,86.91
2023-05-19T00:28:03.754Z,87.44
2023-05-19T00:30:32.332Z,87.52
2023-05-19T00:33:00.898Z,87.27
2023-05-19T00:35:29.085Z,87.19
2023-05-19T00:37:57.403Z,87.88
2023-05-19T00:40:26.015Z,88.84
2023-05-19T00:42:54.063Z,89.39
2023-05-19T00:45:22.126Z,89.32
2023-05-19T00:47:50.538Z,89.58
2023-05-19T00:50:18.603Z,90.56
2023-05-19T00:52:46.802Z,90.34
2023-05-19T00:55:15.544Z,89.92
2023-05-19T00:57:44.251Z,89.84
2023-05-19T01:00:13.851Z,89.63
2023-05-19T01:02:42.675Z,89.08
2023-05-19T01:05:11.342Z,88.37
2023-05-19T01:07:39.915Z,88.29
2023-05-19T01:10:08.191Z,88.33
2023-05-19T01:12:36.486Z,88.44
2023-05-19T01:15:05.715Z,88.24
2023-05-19T01:17:37.958Z,87.62
2023-05-19T01:20:29.299Z,87.45
2023-05-19T01:23:15.349Z,87.39
2023-05-19T01:25:58.600Z,87.48
2023-05-19T01:28:38.762Z,88.61
2023-05-19T01:31:07.601Z,89.19
2023-05-19T01:33:36.121Z,89.21
2023-05-19T01:36:06.721Z,89.71
2023-05-19T01:38:34.884Z,90.26
2023-05-19T01:41:04.320Z,89.92
2023-05-19T01:43:33.301Z,89.18
2023-05-19T01:46:02.540Z,88.81
2023-05-19T01:48:30.776Z,88.72
2023-05-19T01:50:59.293Z,89.17
2023-05-19T01:53:27.291Z,89.43
2023-05-19T01:55:56.303Z,89.29
2023-05-19T01:58:24.441Z,89.34
2023-05-19T02:01:19.170Z,89.20
2023-05-19T02:03:50.041Z,89.29
2023-05-19T02:06:39.436Z,89.01
2023-05-19T02:09:13.333Z,88.95
2023-05-19T02:11:53.441Z,88.73
2023-05-19T02:14:25.985Z,88.34
2023-05-19T02:16:54.017Z,88.19
2023-05-19T02:19:23.401Z,88.51
2023-05-19T02:21:52.359Z,88.69
2023-05-19T02:24:23.291Z,89.44
2023-05-19T02:26:52.092Z,89.94
2023-05-19T02:29:20.738Z,90.54
2023-05-19T02:31:48.937Z,91.00
2023-05-19T02:34:17.090Z,90.82
2023-05-19T02:36:45.119Z,90.45
2023-05-19T02:39:13.354Z,90.03
2023-05-19T02:41:41.520Z,89.53
2023-05-19T02:44:09.756Z,89.16
2023-05-19T02:46:38.203Z,88.19
2023-05-19T02:49:06.245Z,87.80
2023-05-19T02:51:34.348Z,87.62
2023-05-19T02:54:02.532Z,87.32
2023-05-19T02:56:30.618Z,88.11
2023-05-19T02:58:58.611Z,88.81
2023-05-19T03:01:27.088Z,89.40
2023-05-19T03:03:55.507Z,90.31
2023-05-19T03:06:24.493Z,90.26
2023-05-19T03:08:52.847Z,91.34
2023-05-19T03:11:21.354Z,92.40
2023-05-19T03:13:49.366Z,93.59
2023-05-19T03:16:17.828Z,93.79
2023-05-19T03:18:46.330Z,93.63
2023-05-19T03:21:14.517Z,92.90
2023-05-19T03:23:42.506Z,92.46
2023-05-19T03:26:10.889Z,91.49
2023-05-19T03:28:38.881Z,90.12
2023-05-19T03:31:06.865Z,88.59
2023-05-19T03:33:38.572Z,87.84
2023-05-19T03:36:07.307Z,86.53
2023-05-19T03:38:37.881Z,84.95
2023-05-19T03:41:06.067Z,84.49
2023-05-19T03:43:34.089Z,83.36
2023-05-19T03:46:04.177Z,82.78
2023-05-19T03:49:12.015Z,82.21
2023-05-19T03:51:46.244Z,82.07
2023-05-19T03:54:23.386Z,81.84
2023-05-19T03:56:52.477Z,81.71
2023-05-19T03:59:20.691Z,82.04
2023-05-19T04:01:49.061Z,81.67
2023-05-19T04:04:17.060Z,82.09
2023-05-19T04:06:46.406Z,81.99
2023-05-19T04:09:16.304Z,81.92
2023-05-19T04:11:44.396Z,81.69
2023-05-19T04:14:12.438Z,81.75
2023-05-19T04:16:40.599Z,81.82
2023-05-19T04:19:08.771Z,81.04
2023-05-19T04:21:36.974Z,80.14
2023-05-19T04:24:06.419Z,78.93
2023-05-19T04:26:34.732Z,77.15
2023-05-19T04:29:04.684Z,76.22
2023-05-19T04:31:34.651Z,75.62
2023-05-19T04:34:03.647Z,75.11
2023-05-19T04:36:34.205Z,74.64
2023-05-19T04:39:07.170Z,74.99
2023-05-19T04:41:35.312Z,75.57
2023-05-19T04:44:04.706Z,75.73
2023-05-19T04:46:32.977Z,75.57
2023-05-19T04:49:03.991Z,75.73
2023-05-19T04:51:32.082Z,75.84
2023-05-19T04:54:01.654Z,75.99
2023-05-19T04:56:30.226Z,74.28
2023-05-19T04:58:58.447Z,71.07
2023-05-19T05:01:27.491Z,67.02
2023-05-19T05:03:58.922Z,63.71
2023-05-19T05:06:28.696Z,58.38
2023-05-19T05:08:57.150Z,54.94
2023-05-19T05:11:26.413Z,52.76
2023-05-19T05:13:58.212Z,50.72
2023-05-19T05:16:28.441Z,48.16
2023-05-19T05:18:57.986Z,46.16
2023-05-19T05:21:26.672Z,44.16
2023-05-19T05:23:55.516Z,43.48
2023-05-19T05:26:28.613Z,42.57
2023-05-19T05:28:56.787Z,43.18
2023-05-19T05:31:25.950Z,44.69
2023-05-19T05:33:54.524Z,45.91
2023-05-19T05:36:25.623Z,46.26
2023-05-19T05:38:54.642Z,47.32
2023-05-19T05:41:23.617Z,48.05
2023-05-19T05:43:52.311Z,48.43
2023-05-19T05:46:20.397Z,49.63
2023-05-19T05:48:48.696Z,49.43
2023-05-19T05:51:18.034Z,48.33
2023-05-19T05:53:51.071Z,47.11
2023-05-19T05:56:19.557Z,45.79
2023-05-19T05:58:51.158Z,43.88
2023-05-19T06:01:21.044Z,44.77
2023-05-19T06:03:49.628Z,45.08
2023-05-19T06:06:21.366Z,43.78
2023-05-19T06:08:49.397Z,44.65
2023-05-19T06:11:19.724Z,43.50
2023-05-19T06:13:48.643Z,42.87
2023-05-19T06:16:24.253Z,41.21
2023-05-19T06:18:54.385Z,42.19
2023-05-19T06:21:22.945Z,40.43
2023-05-19T06:23:51.168Z,40.00
2023-05-19T06:26:19.548Z,39.99
2023-05-19T06:28:47.639Z,40.68
2023-05-19T06:31:16.590Z,41.21
2023-05-19T06:33:57.003Z,41.42
2023-05-19T06:36:25.835Z,39.72
2023-05-19T06:38:55.523Z,38.07
2023-05-19T06:41:23.900Z,37.63
2023-05-19T06:43:52.363Z,38.54
2023-05-19T06:46:23.308Z,38.16
2023-05-19T06:48:51.772Z,37.64
2023-05-19T06:51:22.496Z,36.13
2023-05-19T06:53:54.065Z,34.96
2023-05-19T06:56:23.145Z,34.26
2023-05-19T06:58:51.299Z,34.89
2023-05-19T07:01:19.862Z,33.80
2023-05-19T07:03:51.176Z,32.83
2023-05-19T07:06:19.584Z,33.84
2023-05-19T07:08:48.214Z,33.34
2023-05-19T07:11:17.984Z,34.56
2023-05-19T07:13:46.206Z,34.80
2023-05-19T07:16:15.877Z,35.92
2023-05-19T07:18:45.866Z,35.86
2023-05-19T07:21:13.964Z,35.25
2023-05-19T07:23:42.019Z,35.56
2023-05-19T07:26:10.090Z,36.90
2023-05-19T07:28:39.882Z,37.76
2023-05-19T07:31:09.893Z,37.69
2023-05-19T07:33:38.023Z,39.90
2023-05-19T07:36:06.285Z,41.17
2023-05-19T07:38:34.983Z,41.51
2023-05-19T07:41:03.202Z,41.97
2023-05-19T07:43:31.659Z,42.64
2023-05-19T07:45:59.927Z,42.90
2023-05-19T07:48:28.044Z,42.49
2023-05-19T07:50:56.476Z,42.33
2023-05-19T07:53:24.542Z,44.07
2023-05-19T07:55:52.570Z,42.75
2023-05-19T07:58:20.816Z,41.43
2023-05-19T08:00:48.901Z,41.13
2023-05-19T08:03:21.051Z,39.86
2023-05-19T08:05:49.414Z,39.72
2023-05-19T08:08:19.349Z,40.51
2023-05-19T08:10:47.819Z,41.31
2023-05-19T08:13:15.990Z,41.14
2023-05-19T08:15:44.263Z,39.74
2023-05-19T08:18:12.322Z,38.54
2023-05-19T08:20:40.613Z,36.58
2023-05-19T08:23:08.595Z,34.93
2023-05-19T08:25:36.803Z,33.93
2023-05-19T08:28:05.007Z,32.59
2023-05-19T08:30:33.176Z,32.51
2023-05-19T08:33:01.511Z,33.60
2023-05-19T08:35:29.586Z,33.18
2023-05-19T08:37:57.626Z,34.12
2023-05-19T08:40:27.528Z,32.63
2023-05-19T08:42:55.676Z,32.82
2023-05-19T08:45:24.612Z,32.16
2023-05-19T08:47:52.920Z,32.06
2023-05-19T08:50:25.010Z,31.70
2023-05-19T08:53:01.699Z,32.70
2023-05-19T08:55:55.314Z,33.71
2023-05-19T08:58:23.473Z,33.81
2023-05-19T09:00:52.237Z,33.50
2023-05-19T09:03:23.876Z,33.19
2023-05-19T09:05:52.288Z,33.38
2023-05-19T09:08:20.978Z,33.20
2023-05-19T09:10:49.218Z,31.08
2023-05-19T09:13:17.609Z,29.85
2023-05-19T09:15:45.700Z,30.36
2023-05-19T09:18:15.094Z,32.27
2023-05-19T09:20:43.865Z,34.21
2023-05-19T09:23:16.547Z,35.73
2023-05-19T09:25:47.931Z,37.63
2023-05-19T09:28:23.150Z,39.67
2023-05-19T09:31:01.268Z,41.51
2023-05-19T09:33:29.805Z,41.93
2023-05-19T09:35:57.874Z,41.22
2023-05-19T09:38:29.620Z,39.47
2023-05-19T09:40:58.735Z,39.16
2023-05-19T09:43:30.891Z,40.72
2023-05-19T09:46:06.631Z,41.40
2023-05-19T09:48:36.647Z,41.19
2023-05-19T09:51:07.971Z,40.46
2023-05-19T09:53:36.558Z,39.94
2023-05-19T09:56:05.058Z,39.25
2023-05-19T09:58:37.090Z,39.75
2023-05-19T10:01:06.057Z,38.62
2023-05-19T10:03:34.965Z,38.57
2023-05-19T10:06:04.847Z,39.09
2023-05-19T10:08:33.776Z,39.25
2023-05-19T10:11:02.713Z,37.26
2023-05-19T10:13:31.131Z,37.34
2023-05-19T10:16:00.148Z,36.99
2023-05-19T10:18:29.978Z,37.20
2023-05-19T10:20:59.176Z,36.78
2023-05-19T10:23:27.166Z,36.72
2023-05-19T10:25:58.133Z,35.46
2023-05-19T10:28:30.026Z,35.12
2023-05-19T10:31:00.741Z,34.14
2023-05-19T10:33:41.089Z,33.71
2023-05-19T10:36:24.376Z,32.24
2023-05-19T10:38:52.350Z,31.46
2023-05-19T10:41:21.578Z,31.00
2023-05-19T10:43:54.967Z,31.49
2023-05-19T10:46:27.249Z,30.92
2023-05-19T10:48:55.983Z,30.59
2023-05-19T10:51:33.576Z,29.53
2023-05-19T10:54:02.883Z,28.42
2023-05-19T10:56:33.895Z,28.28
2023-05-19T10:59:02.564Z,29.88
2023-05-19T11:01:34.423Z,30.89
2023-05-19T11:04:14.048Z,31.09
2023-05-19T11:06:51.498Z,31.54
2023-05-19T11:09:24.390Z,31.91
2023-05-19T11:12:03.633Z,32.09
2023-05-19T11:14:32.504Z,31.25
2023-05-19T11:17:01.056Z,30.33
2023-05-19T11:19:29.475Z,30.37
2023-05-19T11:22:07.689Z,31.59
2023-05-19T11:24:45.342Z,29.61
2023-05-19T11:27:31.660Z,30.31
2023-05-19T11:30:02.163Z,30.61
2023-05-19T11:32:31.220Z,30.51
2023-05-19T11:35:00.234Z,30.80
2023-05-19T11:37:32.354Z,30.06
2023-05-19T11:40:09.654Z,30.48
2023-05-19T11:42:37.904Z,29.85
2023-05-19T11:45:06.846Z,28.56
2023-05-19T11:47:45.950Z,29.11
2023-05-19T11:50:20.684Z,29.31
2023-05-19T11:52:49.039Z,28.86
2023-05-19T11:55:17.658Z,29.82
2023-05-19T11:58:11.855Z,29.36
2023-05-19T12:00:42.130Z,28.84
2023-05-19T12:03:10.867Z,29.52
2023-05-19T12:05:43.590Z,29.72
2023-05-19T12:08:12.217Z,29.11
2023-05-19T12:10:41.089Z,29.23
2023-05-19T12:13:10.329Z,28.94
2023-05-19T12:15:39.283Z,29.35
2023-05-19T12:18:07.773Z,28.54
2023-05-19T12:20:36.611Z,28.92
2023-05-19T12:23:05.315Z,29.21
2023-05-19T12:25:33.758Z,29.59
2023-05-19T12:28:05.698Z,28.57
2023-05-19T12:30:35.140Z,28.93
2023-05-19T12:33:03.750Z,29.24
2023-05-19T12:35:36.516Z,29.80
2023-05-19T12:38:05.567Z,29.23
2023-05-19T12:40:35.339Z,28.12
2023-05-19T12:43:04.198Z,27.38
2023-05-19T12:45:37.406Z,28.17
2023-05-19T12:48:06.914Z,27.88
2023-05-19T12:50:37.543Z,27.88
2023-05-19T12:53:08.806Z,27.41
2023-05-19T12:55:39.519Z,27.76
2023-05-19T12:58:08.168Z,27.76
2023-05-19T13:00:40.531Z,28.07
2023-05-19T13:03:16.002Z,27.48
2023-05-19T13:05:46.705Z,27.72
2023-05-19T13:08:18.410Z,28.78
2023-05-19T13:10:47.127Z,28.44
2023-05-19T13:13:15.489Z,28.74
2023-05-19T13:15:45.008Z,28.38
2023-05-19T13:18:13.698Z,27.76
2023-05-19T13:20:42.640Z,28.40
2023-05-19T13:23:11.478Z,31.84
2023-05-19T13:25:40.055Z,35.82
2023-05-19T13:28:08.832Z,36.83
2023-05-19T13:30:39.155Z,37.91
2023-05-19T13:33:08.233Z,40.59
2023-05-19T13:35:39.455Z,44.72
2023-05-19T13:38:10.310Z,47.72
2023-05-19T13:40:40.120Z,49.90
2023-05-19T13:43:09.200Z,51.55
2023-05-19T13:45:37.615Z,52.45
2023-05-19T13:50:55.856Z,58.30
2023-05-19T13:51:33.058Z,55.11
2023-05-19T13:53:24.039Z,60.42
2023-05-19T13:55:55.182Z,60.48
2023-05-19T13:58:23.428Z,61.13
2023-05-19T14:00:54.683Z,60.97
2023-05-19T14:03:23.568Z,60.11
2023-05-19T14:05:52.499Z,59.05
2023-05-19T14:08:21.061Z,57.70
2023-05-19T14:10:51.074Z,57.12
2023-05-19T14:13:32.584Z,56.96
2023-05-19T14:16:04.010Z,55.33
2023-05-19T14:18:32.681Z,52.79
2023-05-19T14:21:00.685Z,52.85
2023-05-19T14:23:30.476Z,53.74
2023-05-19T14:25:58.754Z,53.38
2023-05-19T14:28:26.837Z,52.80
2023-05-19T14:30:55.091Z,52.04
2023-05-19T14:33:23.038Z,51.02
2023-05-19T14:35:50.973Z,50.18
2023-05-19T14:38:19.278Z,49.41
2023-05-19T14:40:48.540Z,49.14
2023-05-19T14:43:16.954Z,48.17
2023-05-19T14:45:45.133Z,47.33
2023-05-19T14:48:13.152Z,46.23
2023-05-19T14:50:41.137Z,44.83
2023-05-19T14:53:09.397Z,43.36
2023-05-19T14:55:37.768Z,43.30
2023-05-19T14:58:15.861Z,42.43
2023-05-19T15:00:48.396Z,40.26
2023-05-19T15:03:16.774Z,39.86
2023-05-19T15:05:45.616Z,39.19
2023-05-19T15:08:13.639Z,37.83
2023-05-19T15:10:41.957Z,38.07
2023-05-19T15:13:10.506Z,37.74
2023-05-19T15:15:38.573Z,37.57
2023-05-19T15:18:06.639Z,37.96
2023-05-19T15:20:34.924Z,36.87
2023-05-19T15:23:03.259Z,37.29
2023-05-19T15:25:31.605Z,37.22
2023-05-19T15:27:59.798Z,36.94
2023-05-19T15:30:27.779Z,37.02
2023-05-19T15:32:55.947Z,36.51
2023-05-19T15:35:24.060Z,36.39
2023-05-19T15:37:52.429Z,36.14
2023-05-19T15:40:20.554Z,36.11
2023-05-19T15:42:48.508Z,36.38
2023-05-19T15:45:16.556Z,36.33
2023-05-19T15:47:44.795Z,36.67
2023-05-19T15:50:13.165Z,38.48
2023-05-19T15:52:42.304Z,39.49
2023-05-19T15:55:10.515Z,40.55
2023-05-19T15:57:38.513Z,40.91
2023-05-19T16:00:07.750Z,41.76
2023-05-19T16:02:36.197Z,42.34
2023-05-19T16:05:04.571Z,42.62
2023-05-19T16:07:32.589Z,42.74
2023-05-19T16:10:00.628Z,42.67
2023-05-19T16:12:29.657Z,43.86
2023-05-19T16:14:57.747Z,45.26
2023-05-19T16:17:26.133Z,45.75
2023-05-19T16:19:54.246Z,46.20
2023-05-19T16:22:24.900Z,46.09
2023-05-19T16:24:53.080Z,46.10
2023-05-19T16:27:21.282Z,45.69
2023-05-19T16:29:49.607Z,46.00
2023-05-19T16:32:17.614Z,47.25
2023-05-19T16:34:45.554Z,48.10
2023-05-19T16:37:13.688Z,49.21
2023-05-19T16:39:43.863Z,49.37
2023-05-19T16:42:11.940Z,48.71
2023-05-19T16:44:39.912Z,50.12
2023-05-19T16:47:07.994Z,50.23
2023-05-19T16:49:36.024Z,50.00
2023-05-19T16:52:04.269Z,50.25
2023-05-19T16:54:32.243Z,51.13
2023-05-19T16:57:00.494Z,50.49
2023-05-19T16:59:28.506Z,50.15
2023-05-19T17:01:57.018Z,50.45
2023-05-19T17:04:25.252Z,50.07
2023-05-19T17:06:53.223Z,50.28
2023-05-19T17:09:25.283Z,49.55
2023-05-19T17:11:53.591Z,49.95
2023-05-19T17:14:21.648Z,50.82
2023-05-19T17:16:49.851Z,50.89
2023-05-19T17:19:17.924Z,50.72
2023-05-19T17:21:46.550Z,52.08
2023-05-19T17:24:14.614Z,52.59
2023-05-19T17:26:42.575Z,52.11
2023-05-19T17:29:10.607Z,51.57
2023-05-19T17:31:38.814Z,51.59
2023-05-19T17:34:06.976Z,50.63
2023-05-19T17:36:35.122Z,53.74
2023-05-19T17:39:03.720Z,54.15
2023-05-19T17:41:31.941Z,53.86
2023-05-19T17:44:00.145Z,52.86
2023-05-19T17:46:30.282Z,53.48
2023-05-19T17:48:59.066Z,54.10
2023-05-19T17:51:27.809Z,54.20
2023-05-19T17:53:55.996Z,54.60
2023-05-19T17:56:25.007Z,54.26
2023-05-19T17:58:53.588Z,55.01
2023-05-19T18:01:24.216Z,55.53
2023-05-19T18:03:52.765Z,54.71
2023-05-19T18:06:20.945Z,54.05
2023-05-19T18:08:51.401Z,52.91
2023-05-19T18:11:20.085Z,52.47
2023-05-19T18:13:48.083Z,52.74
2023-05-19T18:16:16.082Z,54.42
2023-05-19T18:18:47.140Z,54.66
2023-05-19T18:21:17.940Z,52.79
2023-05-19T18:23:46.531Z,53.17
2023-05-19T18:26:14.738Z,54.61
2023-05-19T18:28:43.579Z,54.90
2023-05-19T18:31:17.503Z,55.00
2023-05-19T18:33:46.580Z,55.82
2023-05-19T18:36:16.784Z,56.30
2023-05-19T18:38:44.990Z,54.92
2023-05-19T18:41:14.670Z,53.78
2023-05-19T18:43:42.698Z,56.14
2023-05-19T18:46:10.768Z,56.41
2023-05-19T18:48:39.211Z,56.05
2023-05-19T18:51:07.892Z,56.40
2023-05-19T18:53:36.490Z,55.80
2023-05-19T18:56:04.555Z,56.55
2023-05-19T18:58:32.713Z,56.48
2023-05-19T19:01:00.761Z,56.56
2023-05-19T19:03:29.008Z,55.80
2023-05-19T19:06:00.828Z,55.37
2023-05-19T19:08:28.815Z,54.98
2023-05-19T19:11:00.307Z,54.58
2023-05-19T19:13:28.547Z,54.57
2023-05-19T19:15:57.190Z,54.67
2023-05-19T19:18:26.226Z,55.00
2023-05-19T19:20:54.999Z,55.49
2023-05-19T19:23:23.502Z,56.20
2023-05-19T19:25:51.532Z,56.70
2023-05-19T19:28:19.637Z,57.63
2023-05-19T19:30:49.752Z,57.76
2023-05-19T19:33:17.862Z,58.58
2023-05-19T19:35:48.758Z,59.27
2023-05-19T19:38:17.151Z,59.68
2023-05-19T19:40:45.257Z,59.77
2023-05-19T19:43:13.443Z,60.82
2023-05-19T19:45:42.166Z,61.34
2023-05-19T19:48:10.257Z,61.52
2023-05-19T19:50:38.322Z,61.82
2023-05-19T19:53:06.670Z,62.10
2023-05-19T19:55:34.835Z,62.88
2023-05-19T19:58:02.919Z,63.11
2023-05-19T20:00:31.617Z,62.84
2023-05-19T20:03:04.539Z,63.11
2023-05-19T20:05:34.732Z,63.55
2023-05-19T20:08:02.711Z,64.19
2023-05-19T20:10:31.153Z,64.66
2023-05-19T20:12:59.638Z,64.37
2023-05-19T20:15:27.690Z,64.16
2023-05-19T20:17:56.031Z,64.80
2023-05-19T20:20:24.109Z,64.35
2023-05-19T20:22:52.451Z,64.02
2023-05-19T20:25:20.549Z,64.53
2023-05-19T20:27:48.575Z,64.30
2023-05-19T20:30:16.832Z,64.22
2023-05-19T20:32:46.719Z,65.13
2023-05-19T20:35:15.106Z,65.29
2023-05-19T20:37:43.053Z,65.19
2023-05-19T20:40:11.269Z,65.33
2023-05-19T20:42:39.514Z,65.49
2023-05-19T20:45:08.285Z,65.41
2023-05-19T20:47:36.504Z,65.24
2023-05-19T20:50:04.818Z,65.14
2023-05-19T20:52:33.175Z,65.14
2023-05-19T20:55:01.291Z,64.90
2023-05-19T20:57:29.325Z,65.73
2023-05-19T20:59:57.360Z,65.76
2023-05-19T21:02:25.549Z,65.65
2023-05-19T21:04:53.679Z,66.18
2023-05-19T21:07:21.840Z,66.80
2023-05-19T21:09:51.527Z,66.67
2023-05-19T21:12:23.902Z,66.26
2023-05-19T21:14:52.309Z,66.73
2023-05-19T21:17:21.260Z,66.38
2023-05-19T21:19:50.612Z,67.41
2023-05-19T21:22:19.090Z,67.22
2023-05-19T21:24:47.190Z,68.38
2023-05-19T21:27:15.292Z,68.79
2023-05-19T21:29:43.232Z,68.49
2023-05-19T21:32:11.229Z,69.27
2023-05-19T21:34:39.535Z,69.52
2023-05-19T21:37:07.716Z,69.60
2023-05-19T21:39:35.846Z,69.43
2023-05-19T21:42:04.268Z,69.97
2023-05-19T21:44:32.496Z,69.92
2023-05-19T21:47:00.898Z,70.31
2023-05-19T21:49:28.988Z,70.81
2023-05-19T21:51:57.055Z,70.62
2023-05-19T21:54:24.983Z,70.77
2023-05-19T21:56:56.094Z,71.08
2023-05-19T21:59:24.889Z,71.67
2023-05-19T22:01:53.118Z,71.92
2023-05-19T22:04:22.676Z,72.12
2023-05-19T22:06:51.296Z,72.33
2023-05-19T22:09:19.265Z,71.40
2023-05-19T22:11:47.243Z,71.49
2023-05-19T22:14:15.615Z,72.16
2023-05-19T22:16:43.866Z,72.76
2023-05-19T22:19:12.244Z,72.56
2023-05-19T22:21:40.830Z,72.74
2023-05-19T22:24:09.294Z,72.52
2023-05-19T22:26:38.008Z,72.96
2023-05-19T22:29:06.207Z,73.00
2023-05-19T22:31:34.151Z,72.44
2023-05-19T22:34:02.307Z,72.30
2023-05-19T22:36:31.384Z,72.69
2023-05-19T22:38:59.348Z,73.26
2023-05-19T22:41:27.490Z,73.94
2023-05-19T22:43:55.457Z,74.07
2023-05-19T22:46:23.715Z,73.77
2023-05-19T22:48:51.901Z,73.57
2023-05-19T22:51:19.950Z,73.38
2023-05-19T22:53:49.009Z,73.51
2023-05-19T22:56:17.285Z,73.10
2023-05-19T22:58:45.238Z,73.03
2023-05-19T23:01:13.253Z,73.38
2023-05-19T23:03:41.502Z,73.81
2023-05-19T23:06:09.713Z,74.70
2023-05-19T23:08:37.662Z,74.73
2023-05-19T23:11:05.690Z,74.50
2023-05-19T23:13:33.869Z,74.70
2023-05-19T23:16:02.470Z,74.46
2023-05-19T23:18:30.457Z,75.27
2023-05-19T23:20:58.692Z,75.55
2023-05-19T23:23:27.643Z,75.17
2023-05-19T23:25:56.764Z,76.07
2023-05-19T23:28:24.817Z,76.30
2023-05-19T23:30:53.325Z,76.62
2023-05-19T23:33:21.666Z,77.18
2023-05-19T23:35:49.687Z,76.98
2023-05-19T23:38:17.904Z,76.88
2023-05-19T23:40:46.082Z,77.23
2023-05-19T23:43:14.116Z,77.16
2023-05-19T23:45:42.444Z,77.38
2023-05-19T23:48:11.236Z,76.29
2023-05-19T23:50:39.322Z,76.86
2023-05-19T23:53:08.150Z,76.87
2023-05-19T23:55:36.308Z,77.22
2023-05-19T23:58:04.546Z,76.64
